Time;durP1;ratioP1;P1;durP2;ratioP2;P2;SDS_P1;SDS_P2;PMS_P1;PMS_P2;Temp;Humidity;BMP_temperature;BMP_pressure;BME280_temperature;BME280_humidity;BME280_pressure;Samples;Min_cycle;Max_cycle;Signal;HPM_P1;HPM_P2
2021/11/06 00:01:54;;;;;;;27.50;16.90;;;;;;;7.79;93.46;101677.31;5001869;28;20112;-53
2021/11/06 00:04:20;;;;;;;28.73;16.52;;;;;;;7.79;93.91;101683.47;5000881;28;20050;-53
2021/11/06 00:06:47;;;;;;;24.15;15.25;;;;;;;7.76;93.70;101678.22;5001494;28;20042;-52
2021/11/06 00:09:13;;;;;;;28.95;16.23;;;;;;;7.73;93.78;101684.41;4996159;28;20042;-53
2021/11/06 00:11:40;;;;;;;26.52;16.88;;;;;;;7.70;94.12;101686.25;5002220;28;20065;-52
2021/11/06 00:14:06;;;;;;;29.73;17.73;;;;;;;7.66;94.10;101693.31;5006346;28;20049;-54
2021/11/06 00:16:33;;;;;;;30.73;17.40;;;;;;;7.64;93.88;101687.19;4996805;28;20045;-53
2021/11/06 00:18:59;;;;;;;28.33;16.90;;;;;;;7.64;94.20;101691.59;4995222;28;20422;-52
2021/11/06 00:21:26;;;;;;;28.35;17.30;;;;;;;7.59;94.15;101680.25;5003595;28;20042;-53
2021/11/06 00:23:52;;;;;;;29.35;17.88;;;;;;;7.57;94.66;101684.66;5001020;28;20046;-53
2021/11/06 00:26:19;;;;;;;30.38;18.77;;;;;;;7.59;94.58;101696.06;4999911;28;20054;-52
2021/11/06 00:28:45;;;;;;;28.70;17.83;;;;;;;7.55;94.66;101689.97;4996141;28;20549;-53
2021/11/06 00:31:12;;;;;;;28.95;17.95;;;;;;;7.59;94.91;101699.56;5002171;28;20041;-52
2021/11/06 00:33:38;;;;;;;26.70;17.30;;;;;;;7.60;94.63;101689.91;5003025;28;20045;-53
2021/11/06 00:36:05;;;;;;;27.67;17.25;;;;;;;7.64;94.43;101694.22;5005270;28;20054;-55
2021/11/06 00:38:31;;;;;;;30.92;18.17;;;;;;;7.62;94.61;101682.84;4993355;28;20419;-56
2021/11/06 00:40:58;;;;;;;29.10;17.63;;;;;;;7.58;94.66;101681.13;5005767;28;20054;-51
2021/11/06 00:43:24;;;;;;;29.60;18.50;;;;;;;7.51;95.01;101687.41;5003374;28;20050;-52
2021/11/06 00:45:50;;;;;;;29.95;18.92;;;;;;;7.47;95.15;101680.41;5004723;28;20503;-54
2021/11/06 00:48:17;;;;;;;32.83;18.92;;;;;;;7.44;95.59;101681.31;4991258;28;20495;-52
2021/11/06 00:50:44;;;;;;;31.70;18.45;;;;;;;7.46;95.65;101679.53;5009722;28;20105;-52
2021/11/06 00:53:10;;;;;;;31.00;19.42;;;;;;;7.46;95.69;101682.19;5001113;28;20050;-53
2021/11/06 00:55:37;;;;;;;33.97;20.50;;;;;;;7.46;95.81;101678.69;5002361;28;20053;-53
2021/11/06 00:58:03;;;;;;;31.58;19.52;;;;;;;7.42;96.00;101676.97;4997023;28;20444;-52
2021/11/06 01:00:30;;;;;;;33.08;18.88;;;;;;;7.37;96.16;101683.19;5006268;28;20049;-52
2021/11/06 01:02:56;;;;;;;34.10;19.45;;;;;;;7.38;95.96;101686.69;5019679;28;20853;-53
2021/11/06 01:05:23;;;;;;;29.88;17.95;;;;;;;7.41;95.89;101684.00;5016765;28;20049;-53
2021/11/06 01:07:53;;;;;;;33.03;19.40;;;;;;;7.47;95.03;101683.06;5016420;28;20049;-51
2021/11/06 01:10:20;;;;;;;31.25;19.30;;;;;;;7.46;95.29;101681.31;5035152;28;20048;-52
2021/11/06 01:12:47;;;;;;;30.58;18.63;;;;;;;7.47;95.10;101683.06;5032544;28;20041;-53
2021/11/06 01:15:14;;;;;;;30.77;18.73;;;;;;;7.42;95.20;101685.75;5028354;28;20045;-53
2021/11/06 01:17:42;;;;;;;30.02;18.85;;;;;;;7.42;95.60;101687.50;5019302;28;20112;-54
2021/11/06 01:20:09;;;;;;;32.88;19.77;;;;;;;7.42;95.46;101687.50;5025620;28;20045;-52
2021/11/06 01:22:36;;;;;;;31.95;19.45;;;;;;;7.38;96.05;101687.56;5026053;28;20045;-53
2021/11/06 01:25:05;;;;;;;32.63;20.10;;;;;;;7.37;96.30;101691.09;5030413;28;20041;-53
2021/11/06 01:27:31;;;;;;;35.83;19.83;;;;;;;7.35;96.38;101687.59;5024317;28;20136;-52
2021/11/06 01:29:58;;;;;;;34.35;20.08;;;;;;;7.34;96.52;101688.50;5022808;28;20077;-54
2021/11/06 01:32:25;;;;;;;33.10;19.67;;;;;;;7.38;96.31;101692.84;5027681;28;20049;-54
2021/11/06 01:34:51;;;;;;;33.72;19.08;;;;;;;7.37;96.42;101693.72;5026285;28;20044;-52
2021/11/06 01:37:18;;;;;;;31.13;18.45;;;;;;;7.39;96.74;101696.34;5024011;28;20048;-53
2021/11/06 01:39:44;;;;;;;32.13;17.48;;;;;;;7.39;96.47;101689.31;5019068;28;20045;-53
2021/11/06 01:42:11;;;;;;;29.83;18.15;;;;;;;7.36;96.80;101692.00;5023666;28;20046;-53
2021/11/06 01:44:38;;;;;;;27.60;17.08;;;;;;;7.39;96.93;101701.63;5024078;28;20064;-56
2021/11/06 01:47:06;;;;;;;27.67;17.35;;;;;;;7.42;96.21;101691.00;5022604;28;20052;-55
2021/11/06 01:49:32;;;;;;;29.17;17.70;;;;;;;7.42;96.53;101698.91;5016366;28;20783;-59
2021/11/06 01:51:59;;;;;;;28.98;17.80;;;;;;;7.39;96.90;101694.59;5024524;28;20049;-54
2021/11/06 01:54:25;;;;;;;28.35;17.10;;;;;;;7.42;96.84;101695.41;5023627;28;20052;-52
2021/11/06 01:56:54;;;;;;;26.50;16.98;;;;;;;7.40;97.15;101693.66;5027649;28;20050;-59
2021/11/06 01:59:22;;;;;;;26.35;16.88;;;;;;;7.43;97.00;101699.78;5015076;28;20136;-52
2021/11/06 02:01:50;;;;;;;27.30;16.92;;;;;;;7.44;96.84;101697.13;5008141;28;20057;-52
2021/11/06 02:04:17;;;;;;;26.67;16.67;;;;;;;7.42;96.74;101691.00;5011142;28;20046;-51
2021/11/06 02:06:44;;;;;;;26.80;17.15;;;;;;;7.37;96.61;101699.00;5007362;28;20077;-54
2021/11/06 02:09:10;;;;;;;25.25;16.52;;;;;;;7.42;97.19;101691.00;4998418;28;20046;-61
2021/11/06 02:11:38;;;;;;;28.58;17.08;;;;;;;7.43;96.84;101692.75;5009998;28;20088;-55
2021/11/06 02:14:05;;;;;;;26.17;16.30;;;;;;;7.40;97.09;101685.75;5005881;28;20045;-54
2021/11/06 02:16:32;;;;;;;23.63;15.35;;;;;;;7.43;97.33;101689.25;5009768;28;20537;-54
2021/11/06 02:18:59;;;;;;;28.42;16.80;;;;;;;7.42;97.22;101682.22;4998013;28;20045;-52
2021/11/06 02:21:26;;;;;;;31.08;16.63;;;;;;;7.40;97.07;101683.13;5012373;28;20052;-56
2021/11/06 02:23:52;;;;;;;28.20;16.77;;;;;;;7.40;97.45;101680.50;5005442;28;20491;-52
2021/11/06 02:26:20;;;;;;;28.38;16.48;;;;;;;7.35;97.45;101666.53;5009264;28;20053;-54
2021/11/06 02:29:07;;;;;;;28.20;16.40;;;;;;;7.36;97.67;101673.53;4994804;28;20049;-52
2021/11/06 02:31:33;;;;;;;25.73;16.08;;;;;;;7.34;98.13;101672.69;5007175;28;20045;-53
2021/11/06 02:34:00;;;;;;;27.42;17.10;;;;;;;7.34;98.38;101674.44;5005315;28;20052;-52
2021/11/06 02:36:26;;;;;;;26.40;16.13;;;;;;;7.38;98.41;101682.31;5004127;28;20065;-54
2021/11/06 02:38:53;;;;;;;24.88;15.68;;;;;;;7.44;97.84;101680.44;4994763;28;20050;-53
2021/11/06 02:41:20;;;;;;;28.48;16.77;;;;;;;7.41;97.68;101684.00;5005980;28;20050;-53
2021/11/06 02:43:46;;;;;;;24.02;16.20;;;;;;;7.38;97.77;101681.44;5007759;28;20049;-53
2021/11/06 02:46:13;;;;;;;26.13;16.42;;;;;;;7.35;98.09;101679.69;5004251;28;20415;-52
2021/11/06 02:48:39;;;;;;;26.20;15.88;;;;;;;7.33;98.45;101677.97;5002289;28;20169;-53
2021/11/06 02:51:06;;;;;;;26.02;15.80;;;;;;;7.31;98.52;101680.63;5002599;28;20046;-54
2021/11/06 02:53:32;;;;;;;26.73;15.88;;;;;;;7.31;98.66;101679.75;4996322;28;20443;-52
2021/11/06 02:55:59;;;;;;;26.88;16.40;;;;;;;7.26;98.91;101677.16;5007504;28;20046;-53
2021/11/06 02:58:25;;;;;;;25.55;16.13;;;;;;;7.25;99.19;101675.41;4998466;28;20069;-53
2021/11/06 03:00:52;;;;;;;24.60;15.52;;;;;;;7.25;99.44;101680.69;5007967;28;20069;-53
2021/11/06 03:03:19;;;;;;;23.73;16.08;;;;;;;7.21;99.44;101671.09;5010162;28;20073;-52
2021/11/06 03:05:46;;;;;;;24.73;15.27;;;;;;;7.19;99.80;101672.88;5005294;28;20050;-52
2021/11/06 03:08:12;;;;;;;32.75;17.05;;;;;;;7.16;99.96;101669.41;4999742;28;20530;-59
2021/11/06 03:10:39;;;;;;;28.45;17.23;;;;;;;7.14;100.00;101676.47;5001271;28;20052;-53
2021/11/06 03:13:06;;;;;;;27.85;16.95;;;;;;;7.07;100.00;101675.69;5005546;28;20037;-52
2021/11/06 03:15:34;;;;;;;28.52;17.48;;;;;;;7.08;100.00;101680.06;5005214;28;20806;-54
2021/11/06 03:18:00;;;;;;;31.20;17.88;;;;;;;7.06;100.00;101683.59;4996087;28;20084;-52
2021/11/06 03:20:27;;;;;;;30.33;18.15;;;;;;;7.01;100.00;101686.28;5004431;28;20062;-52
2021/11/06 03:22:58;;;;;;;25.63;16.98;;;;;;;7.00;100.00;101689.78;5007060;28;20042;-53
2021/11/06 03:25:27;;;;;;;;;;;;;;;7.00;100.00;101689.78;5003451;28;20045;-53
2021/11/06 03:27:55;;;;;;;35.13;17.33;;;;;;;7.00;100.00;101689.78;5003594;28;19932;-53
2021/11/06 03:30:22;;;;;;;29.30;18.25;;;;;;;7.00;100.00;101698.56;4996008;28;20045;-52
2021/11/06 03:32:48;;;;;;;28.27;17.52;;;;;;;6.99;100.00;101698.59;5004907;28;20587;-53
2021/11/06 03:35:15;;;;;;;27.20;17.38;;;;;;;7.00;100.00;101700.34;5004348;28;20064;-53
2021/11/06 03:37:41;;;;;;;28.70;17.27;;;;;;;7.00;100.00;101702.97;5008546;28;20056;-53
2021/11/06 03:40:09;;;;;;;28.60;17.38;;;;;;;6.98;100.00;101708.25;4998500;28;20049;-52
2021/11/06 03:42:36;;;;;;;26.10;16.05;;;;;;;6.95;100.00;101707.41;5007422;28;20173;-53
2021/11/06 03:45:03;;;;;;;27.70;16.92;;;;;;;6.90;100.00;101715.38;5004228;28;20052;-54
2021/11/06 03:47:29;;;;;;;29.17;17.15;;;;;;;6.87;100.00;101715.41;5003273;28;20049;-54
2021/11/06 03:49:56;;;;;;;28.23;17.85;;;;;;;6.79;100.00;101713.72;4994425;28;20045;-53
2021/11/06 03:52:23;;;;;;;26.08;16.08;;;;;;;6.72;100.00;101709.44;5003808;28;20042;-53
2021/11/06 03:54:49;;;;;;;27.48;17.00;;;;;;;6.73;100.00;101716.44;5005271;28;20042;-51
2021/11/06 03:57:16;;;;;;;26.65;17.13;;;;;;;6.69;100.00;101719.09;5012031;28;20049;-58
2021/11/06 03:59:42;;;;;;;32.88;16.88;;;;;;;6.51;100.00;101700.84;4999262;28;20049;-51
2021/11/06 04:02:09;;;;;;;27.55;16.58;;;;;;;6.56;100.00;101725.38;5023576;28;20105;-52
2021/11/06 04:04:35;;;;;;;25.30;16.13;;;;;;;6.55;100.00;101734.16;5023315;28;20539;-51
2021/11/06 04:07:02;;;;;;;27.05;16.85;;;;;;;6.57;100.00;101734.13;5019886;28;20052;-53
2021/11/06 04:09:29;;;;;;;27.90;16.98;;;;;;;6.54;100.00;101721.00;5013514;28;20518;-52
2021/11/06 04:11:56;;;;;;;27.48;16.83;;;;;;;6.54;100.00;101735.03;5026428;28;20047;-52
2021/11/06 04:14:22;;;;;;;27.38;17.05;;;;;;;6.54;100.00;101735.03;5021021;28;20072;-56
2021/11/06 04:16:49;;;;;;;28.65;16.45;;;;;;;6.52;100.00;101730.66;5025127;28;20049;-51
2021/11/06 04:19:15;;;;;;;26.45;17.08;;;;;;;6.44;100.00;101714.09;5011470;28;20049;-54
2021/11/06 04:21:42;;;;;;;27.02;15.48;;;;;;;6.55;100.00;101733.28;5018665;28;20049;-53
2021/11/06 04:24:08;;;;;;;27.80;16.55;;;;;;;6.50;100.00;101732.44;5021833;28;20053;-52
2021/11/06 04:26:35;;;;;;;26.67;16.90;;;;;;;6.49;100.00;101730.69;5024817;28;20703;-51
2021/11/06 04:29:02;;;;;;;28.98;16.67;;;;;;;6.47;100.00;101725.44;5016707;28;20042;-53
2021/11/06 04:31:28;;;;;;;27.70;17.15;;;;;;;6.46;100.00;101725.44;5023215;28;20067;-52
2021/11/06 04:33:55;;;;;;;25.88;16.60;;;;;;;6.45;100.00;101716.72;5025324;28;20045;-55
2021/11/06 04:36:21;;;;;;;26.05;15.45;;;;;;;6.44;100.00;101725.50;5024011;28;20046;-53
2021/11/06 04:38:48;;;;;;;32.42;18.20;;;;;;;6.46;100.00;101723.69;5021416;28;20041;-53
2021/11/06 04:41:14;;;;;;;26.40;16.70;;;;;;;6.47;100.00;101720.16;5027043;28;20127;-53
2021/11/06 04:43:41;;;;;;;27.35;17.35;;;;;;;6.49;100.00;101718.41;5028519;28;20045;-54
2021/11/06 04:46:07;;;;;;;28.88;17.23;;;;;;;6.41;100.00;101712.34;5029784;28;20537;-53
2021/11/06 04:48:34;;;;;;;27.85;17.85;;;;;;;6.48;100.00;101719.28;5022492;28;20410;-52
2021/11/06 04:51:00;;;;;;;34.03;17.90;;;;;;;6.50;100.00;101729.81;5016746;28;20052;-53
2021/11/06 04:53:27;;;;;;;27.33;17.33;;;;;;;6.54;100.00;101728.91;5030417;28;20057;-53
2021/11/06 04:55:55;;;;;;;31.10;18.60;;;;;;;6.54;100.00;101726.25;5030336;28;20117;-53
2021/11/06 04:58:22;;;;;;;30.05;17.50;;;;;;;6.52;100.00;101721.00;5025855;28;20049;-54
2021/11/06 05:00:48;;;;;;;29.15;18.40;;;;;;;6.50;100.00;101724.53;5013834;28;20049;-54
2021/11/06 05:03:15;;;;;;;30.20;17.33;;;;;;;6.42;100.00;101714.09;5007305;28;20049;-52
2021/11/06 05:05:42;;;;;;;29.48;17.67;;;;;;;6.45;100.00;101721.09;5007719;28;20042;-56
2021/11/06 05:08:10;;;;;;;29.92;18.25;;;;;;;6.43;100.00;101722.88;5013020;28;20125;-52
2021/11/06 05:10:38;;;;;;;28.48;17.88;;;;;;;6.42;100.00;101726.38;4983564;28;20053;-51
2021/11/06 05:13:04;;;;;;;27.45;18.02;;;;;;;6.39;100.00;101729.03;5005639;28;20053;-51
2021/11/06 05:15:31;;;;;;;30.88;19.55;;;;;;;6.36;100.00;101727.28;5003263;28;20048;-53
2021/11/06 05:17:57;;;;;;;31.92;18.88;;;;;;;6.35;100.00;101730.81;5001062;28;20053;-53
2021/11/06 05:20:25;;;;;;;30.60;18.35;;;;;;;6.33;100.00;101740.47;4996790;28;20538;-53
2021/11/06 05:22:51;;;;;;;32.55;18.45;;;;;;;6.30;100.00;101740.50;5005763;28;20046;-53
2021/11/06 05:25:18;;;;;;;31.17;19.65;;;;;;;6.25;100.00;101737.91;5006761;28;20491;-53
2021/11/06 05:27:44;;;;;;;31.73;18.90;;;;;;;6.23;100.00;101742.31;5007968;28;20523;-52
2021/11/06 05:30:12;;;;;;;29.13;18.23;;;;;;;6.20;100.00;101737.06;4993396;28;20061;-53
2021/11/06 05:32:38;;;;;;;28.13;17.90;;;;;;;6.09;100.00;101743.31;5010211;28;20056;-53
2021/11/06 05:35:07;;;;;;;26.42;17.60;;;;;;;5.93;100.00;101743.41;4993254;28;20034;-54
2021/11/06 05:37:33;;;;;;;26.17;16.10;;;;;;;5.79;100.00;101744.34;5005116;28;20037;-53
2021/11/06 05:40:00;;;;;;;25.92;15.95;;;;;;;5.60;100.00;101727.78;4993802;28;20050;-54
2021/11/06 05:42:27;;;;;;;27.83;17.10;;;;;;;5.66;100.00;101740.03;5010765;28;20061;-53
2021/11/06 05:44:53;;;;;;;28.73;17.52;;;;;;;5.62;100.00;101749.69;4987296;28;20633;-52
2021/11/06 05:47:20;;;;;;;28.92;16.55;;;;;;;5.58;100.00;101745.31;5008304;28;20061;-54
2021/11/06 05:49:46;;;;;;;32.60;17.25;;;;;;;5.56;100.00;101749.72;4990289;28;20053;-52
2021/11/06 05:52:31;;;;;;;34.63;19.23;;;;;;;5.61;100.00;101753.19;5002895;28;20147;-54
2021/11/06 05:54:58;;;;;;;34.35;20.40;;;;;;;5.68;100.00;101752.25;5002081;28;20050;-53
2021/11/06 05:57:24;;;;;;;36.60;20.48;;;;;;;5.73;100.00;101761.00;5001591;28;20420;-58
2021/11/06 05:59:51;;;;;;;32.78;19.45;;;;;;;5.71;100.00;101760.13;4991905;28;20410;-51
2021/11/06 06:02:17;;;;;;;31.90;17.77;;;;;;;5.67;100.00;101775.94;5011061;28;20046;-54
2021/11/06 06:04:44;;;;;;;30.85;17.10;;;;;;;5.54;100.00;101775.13;4999366;28;20045;-51
2021/11/06 06:07:10;;;;;;;28.23;17.00;;;;;;;5.48;100.00;101773.41;5000014;28;20045;-53
2021/11/06 06:09:37;;;;;;;27.95;16.67;;;;;;;5.47;100.00;101770.78;4996583;28;20043;-53
2021/11/06 06:12:04;;;;;;;27.92;17.10;;;;;;;5.48;100.00;101772.53;5000134;28;20045;-53
2021/11/06 06:14:30;;;;;;;29.50;17.08;;;;;;;5.42;100.00;101773.41;4997354;28;20049;-53
2021/11/06 06:16:57;;;;;;;28.50;17.10;;;;;;;5.39;100.00;101767.28;5001652;28;20042;-52
2021/11/06 06:19:23;;;;;;;28.17;16.73;;;;;;;5.40;100.00;101772.53;4997227;28;20052;-52
2021/11/06 06:21:50;;;;;;;29.58;16.65;;;;;;;5.33;100.00;101754.19;4996568;28;20063;-51
2021/11/06 06:24:16;;;;;;;30.35;17.45;;;;;;;5.47;100.00;101783.91;5000429;28;20049;-53
2021/11/06 06:26:42;;;;;;;29.50;18.40;;;;;;;5.62;100.00;101786.47;5002359;28;20048;-55
2021/11/06 06:29:09;;;;;;;44.47;23.70;;;;;;;5.85;100.00;101783.72;4999115;28;20333;-53
2021/11/06 06:31:36;;;;;;;42.22;21.50;;;;;;;5.96;100.00;101788.09;4997199;28;20054;-54
2021/11/06 06:34:02;;;;;;;38.50;22.10;;;;;;;6.02;100.00;101783.66;4999886;28;20060;-53
2021/11/06 06:36:29;;;;;;;46.58;24.92;;;;;;;6.07;100.00;101788.00;5002202;28;20058;-53
2021/11/06 06:38:55;;;;;;;45.90;24.48;;;;;;;6.12;100.00;101795.88;4999380;28;20045;-52
2021/11/06 06:41:22;;;;;;;49.38;25.42;;;;;;;6.14;100.00;101784.44;4992619;28;20060;-53
2021/11/06 06:43:48;;;;;;;50.80;26.48;;;;;;;6.19;100.00;101784.41;4996875;28;20057;-52
2021/11/06 06:46:15;;;;;;;51.60;26.40;;;;;;;6.25;100.00;101793.16;4996778;28;20045;-52
2021/11/06 06:48:41;;;;;;;47.28;25.58;;;;;;;6.27;100.00;101801.91;4995567;28;20842;-54
2021/11/06 06:51:08;;;;;;;55.17;27.55;;;;;;;6.27;100.00;101796.66;4990376;28;20061;-53
2021/11/06 06:53:35;;;;;;;48.88;26.58;;;;;;;6.27;100.00;101795.78;4991744;28;20065;-55
2021/11/06 06:56:01;;;;;;;52.75;27.35;;;;;;;6.30;100.00;101795.72;5001520;28;20404;-54
2021/11/06 06:58:28;;;;;;;51.65;27.35;;;;;;;6.36;100.00;101795.69;4996567;28;20654;-51
2021/11/06 07:00:55;;;;;;;58.95;28.25;;;;;;;6.36;100.00;101795.69;4991785;28;20148;-53
2021/11/06 07:03:21;;;;;;;54.05;27.27;;;;;;;6.38;100.00;101800.94;4995769;28;20058;-56
2021/11/06 07:05:48;;;;;;;57.55;28.02;;;;;;;6.38;100.00;101804.47;5003128;28;20048;-53
2021/11/06 07:08:14;;;;;;;49.65;25.98;;;;;;;6.42;100.00;101805.31;4997236;28;20054;-54
2021/11/06 07:10:41;;;;;;;55.53;27.75;;;;;;;6.43;100.00;101807.94;4996641;28;20050;-54
2021/11/06 07:13:07;;;;;;;60.10;29.05;;;;;;;6.40;100.00;101821.13;4996907;28;20044;-52
2021/11/06 07:15:34;;;;;;;57.00;27.33;;;;;;;6.42;100.00;101819.34;4999299;28;20038;-54
2021/11/06 07:18:02;;;;;;;58.97;28.25;;;;;;;6.38;100.00;101817.63;5000648;28;20050;-56
2021/11/06 07:20:29;;;;;;;56.92;28.35;;;;;;;6.27;100.00;101806.31;4989981;28;20050;-54
2021/11/06 07:22:55;;;;;;;52.28;25.88;;;;;;;6.50;100.00;101830.69;4996641;28;20518;-52
2021/11/06 07:25:22;;;;;;;51.33;24.85;;;;;;;6.47;100.00;101833.31;4996362;28;20041;-51
2021/11/06 07:27:48;;;;;;;48.15;24.90;;;;;;;6.46;100.00;101831.56;4994034;28;20050;-53
2021/11/06 07:30:15;;;;;;;45.00;25.58;;;;;;;6.42;100.00;101839.53;4989951;28;20045;-53
2021/11/06 07:32:41;;;;;;;53.85;25.83;;;;;;;6.36;100.00;101839.56;4995729;28;20045;-54
2021/11/06 07:35:07;;;;;;;45.20;25.73;;;;;;;6.37;100.00;101842.19;5002262;28;20046;-54
2021/11/06 07:37:36;;;;;;;39.67;22.67;;;;;;;6.33;100.00;101837.81;4998576;28;20061;-53
2021/11/06 07:40:06;;;;;;;57.05;27.13;;;;;;;6.22;100.00;101835.25;4999962;28;20065;-54
2021/11/06 07:42:32;;;;;;;70.05;29.65;;;;;;;6.24;100.00;101835.25;5000295;28;20058;-52
2021/11/06 07:44:59;;;;;;;71.75;30.30;;;;;;;6.20;100.00;101833.50;4998080;28;20042;-53
2021/11/06 07:47:25;;;;;;;62.00;29.58;;;;;;;6.17;100.00;101838.78;5001444;28;20056;-53
2021/11/06 07:49:52;;;;;;;51.80;26.83;;;;;;;6.23;100.00;101828.25;4996601;28;20057;-53
2021/11/06 07:52:18;;;;;;;50.20;26.70;;;;;;;6.17;100.00;101829.13;4996129;28;20056;-53
2021/11/06 07:54:45;;;;;;;52.03;28.17;;;;;;;6.14;100.00;101834.41;5004023;28;20046;-52
2021/11/06 07:57:11;;;;;;;55.05;28.23;;;;;;;6.16;100.00;101835.28;5005877;28;20050;-52
2021/11/06 07:59:38;;;;;;;57.42;29.10;;;;;;;6.24;100.00;101837.88;4990517;28;20050;-53
2021/11/06 08:02:04;;;;;;;61.95;29.45;;;;;;;6.31;100.00;101836.94;4998111;28;20042;-57
2021/11/06 08:04:31;;;;;;;52.28;28.38;;;;;;;6.30;100.00;101838.69;5000684;28;20053;-54
2021/11/06 08:06:57;;;;;;;58.38;28.08;;;;;;;6.29;100.00;101846.63;4997695;28;20511;-52
2021/11/06 08:09:23;;;;;;;72.93;29.38;;;;;;;6.28;100.00;101843.13;4998544;28;20046;-53
2021/11/06 08:11:50;;;;;;;70.18;29.63;;;;;;;6.24;100.00;101848.41;4989500;28;20052;-53
2021/11/06 08:14:17;;;;;;;81.75;31.75;;;;;;;6.13;100.00;101852.88;4994186;28;20077;-51
2021/11/06 08:16:44;;;;;;;50.00;26.15;;;;;;;6.06;100.00;101828.34;5003639;28;20057;-52
2021/11/06 08:19:11;;;;;;;52.38;26.08;;;;;;;6.20;100.00;101842.28;4992304;28;20050;-54
2021/11/06 08:21:38;;;;;;;53.53;25.63;;;;;;;6.20;100.00;101841.41;4980725;28;20402;-53
2021/11/06 08:24:04;;;;;;;44.90;24.58;;;;;;;6.25;100.00;101852.78;4992596;28;20054;-54
2021/11/06 08:26:31;;;;;;;47.45;26.13;;;;;;;6.26;100.00;101857.16;4990005;28;20100;-51
2021/11/06 08:28:57;;;;;;;43.50;24.70;;;;;;;6.25;100.00;101853.66;4992853;28;20046;-54
2021/11/06 08:31:24;;;;;;;50.10;25.48;;;;;;;6.20;100.00;101841.41;4985350;28;20065;-53
2021/11/06 08:33:55;;;;;;;52.60;26.38;;;;;;;6.23;100.00;101846.66;4993219;28;20487;-53
2021/11/06 08:36:22;;;;;;;56.58;26.75;;;;;;;6.28;100.00;101850.13;4991628;28;20061;-53
2021/11/06 08:38:48;;;;;;;56.58;25.58;;;;;;;6.24;100.00;101846.66;4992876;28;20080;-52
2021/11/06 08:41:14;;;;;;;54.78;27.60;;;;;;;6.24;100.00;101851.03;4990240;28;20104;-54
2021/11/06 08:43:41;;;;;;;57.72;28.90;;;;;;;6.27;100.00;101848.38;4992773;28;20045;-53
2021/11/06 08:46:07;;;;;;;55.97;27.75;;;;;;;6.30;100.00;101843.09;4984104;28;20073;-53
2021/11/06 08:48:35;;;;;;;60.83;29.08;;;;;;;6.37;100.00;101844.81;4985274;28;20053;-53
2021/11/06 08:51:02;;;;;;;65.90;28.38;;;;;;;6.39;100.00;101850.94;4979131;28;20053;-51
2021/11/06 08:53:29;;;;;;;61.72;29.92;;;;;;;6.40;100.00;101842.16;4987544;28;20049;-53
2021/11/06 08:55:56;;;;;;;65.50;30.73;;;;;;;6.55;100.00;101863.09;4993258;28;20045;-53
2021/11/06 08:58:22;;;;;;;64.00;29.90;;;;;;;6.58;100.00;101852.56;4988065;28;20135;-53
2021/11/06 09:00:50;;;;;;;67.32;30.70;;;;;;;6.59;100.00;101858.69;4983236;28;20069;-54
2021/11/06 09:03:20;;;;;;;71.00;31.20;;;;;;;6.61;100.00;101852.50;4992693;28;20133;-53
2021/11/06 09:05:52;;;;;;;66.07;28.60;;;;;;;6.65;100.00;101854.25;4991532;28;20042;-52
2021/11/06 09:08:25;;;;;;;71.18;30.83;;;;;;;6.56;100.00;101849.06;4995912;28;20492;-53
2021/11/06 09:10:55;;;;;;;65.35;28.60;;;;;;;6.61;100.00;101854.31;4988404;28;20046;-52
2021/11/06 09:13:25;;;;;;;70.18;30.35;;;;;;;6.68;100.00;101856.00;4994684;28;20042;-52
2021/11/06 09:15:59;;;;;;;74.40;31.20;;;;;;;6.74;100.00;101855.94;4996025;28;20193;-53
2021/11/06 09:18:26;;;;;;;78.22;32.30;;;;;;;6.84;100.00;101856.75;5006648;28;20053;-53
2021/11/06 09:20:53;;;;;;;79.68;33.95;;;;;;;6.89;100.00;101853.19;4987321;28;20097;-52
2021/11/06 09:23:19;;;;;;;67.15;31.45;;;;;;;7.01;100.00;101860.09;4995789;28;20312;-53
2021/11/06 09:25:46;;;;;;;63.00;29.85;;;;;;;7.08;100.00;101838.09;4997881;28;20049;-52
2021/11/06 09:28:13;;;;;;;54.00;26.17;;;;;;;7.34;100.00;101853.63;5004375;28;20064;-53
2021/11/06 09:30:40;;;;;;;45.40;24.58;;;;;;;7.46;100.00;101858.75;5000755;28;20046;-52
2021/11/06 09:33:06;;;;;;;44.58;24.80;;;;;;;7.54;99.49;101862.22;5002684;28;20484;-51
2021/11/06 09:35:33;;;;;;;44.40;24.92;;;;;;;7.53;98.54;101859.59;5001428;28;20462;-52
2021/11/06 09:37:59;;;;;;;43.92;24.48;;;;;;;7.50;98.32;101855.22;5003946;28;20486;-53
2021/11/06 09:40:26;;;;;;;39.50;21.40;;;;;;;7.67;98.51;101857.66;4996803;28;20054;-51
2021/11/06 09:42:52;;;;;;;34.72;20.58;;;;;;;7.76;97.73;101860.19;4998712;28;20050;-53
2021/11/06 09:45:19;;;;;;;37.10;20.92;;;;;;;7.92;96.12;101860.84;4991767;28;20074;-53
2021/11/06 09:47:45;;;;;;;37.85;22.27;;;;;;;7.94;94.85;101867.88;4999141;28;20046;-52
2021/11/06 09:50:16;;;;;;;39.80;22.45;;;;;;;7.96;94.75;101871.34;4996076;28;20439;-55
2021/11/06 09:52:45;;;;;;;42.05;23.52;;;;;;;7.98;94.24;101866.94;4992776;28;20042;-54
2021/11/06 09:55:11;;;;;;;42.00;23.73;;;;;;;7.93;93.98;101860.84;5002854;28;20519;-52
2021/11/06 09:57:39;;;;;;;44.47;24.67;;;;;;;8.04;94.21;101884.44;4998435;28;20042;-53
2021/11/06 10:00:09;;;;;;;46.47;24.02;;;;;;;8.02;93.90;101868.66;4995824;28;20335;-52
2021/11/06 10:02:36;;;;;;;49.03;26.17;;;;;;;8.16;93.82;101873.75;4996472;28;20045;-53
2021/11/06 10:05:04;;;;;;;44.47;24.42;;;;;;;8.21;93.41;101873.66;5002443;28;20049;-52
2021/11/06 10:07:32;;;;;;;45.53;24.60;;;;;;;8.19;93.56;101875.44;4998391;28;20150;-52
2021/11/06 10:09:59;;;;;;;44.38;25.45;;;;;;;8.02;93.70;101881.84;4998569;28;20064;-53
2021/11/06 10:12:26;;;;;;;41.88;23.95;;;;;;;8.03;93.41;101875.66;4994737;28;20066;-52
2021/11/06 10:15:07;;;;;;;42.60;24.55;;;;;;;7.98;92.17;101866.94;4997035;28;20042;-54
2021/11/06 10:17:35;;;;;;;;;;;;;;;8.07;93.69;101869.44;5000468;28;20630;-52
2021/11/06 10:20:39;;;;;;;42.42;23.20;;;;;;;8.09;92.93;101857.13;4994927;28;19941;-52
2021/11/06 10:23:07;;;;;;;42.05;25.30;;;;;;;8.04;93.24;101855.41;4972645;28;20050;-52
2021/11/06 10:25:37;;;;;;;45.72;25.90;;;;;;;8.04;93.69;101845.75;4987589;28;20100;-52
2021/11/06 10:28:10;;;;;;;39.45;23.20;;;;;;;7.99;93.38;101850.22;4994500;28;20049;-53
2021/11/06 10:30:42;;;;;;;42.10;24.33;;;;;;;8.05;93.86;101838.69;4992471;28;20507;-50
2021/11/06 10:33:14;;;;;;;40.05;24.00;;;;;;;8.16;93.91;101842.09;5000185;28;20056;-52
2021/11/06 10:35:49;;;;;;;41.58;24.52;;;;;;;8.38;92.58;101834.75;4995811;28;20101;-52
2021/11/06 10:38:21;;;;;;;38.75;23.13;;;;;;;8.58;90.60;101819.47;5000088;28;20510;-52
2021/11/06 10:40:59;;;;;;;38.15;21.92;;;;;;;8.75;89.10;101829.75;5001963;28;20057;-51
2021/11/06 10:43:27;;;;;;;35.13;21.23;;;;;;;8.95;89.82;101829.44;4996686;28;20505;-52
2021/11/06 10:45:57;;;;;;;32.03;21.20;;;;;;;8.89;87.25;101818.97;4995842;28;20038;-58
2021/11/06 10:48:29;;;;;;;32.70;19.98;;;;;;;8.74;88.34;101815.69;4995114;28;20041;-52
2021/11/06 10:51:11;;;;;;;33.38;20.73;;;;;;;8.83;88.71;101809.34;4994430;28;20042;-52
2021/11/06 10:54:07;;;;;;;29.13;20.23;;;;;;;8.92;88.24;101805.69;5000111;28;20060;-52
2021/11/06 10:56:41;;;;;;;30.50;19.90;;;;;;;9.15;85.92;101807.00;4999937;28;20049;-54
2021/11/06 10:59:21;;;;;;;29.98;18.92;;;;;;;9.34;85.03;101804.91;5000637;28;20042;-52
2021/11/06 11:01:53;;;;;;;32.03;19.83;;;;;;;9.28;84.69;101798.88;5001101;28;20054;-52
2021/11/06 11:04:21;;;;;;;32.70;20.33;;;;;;;9.28;84.81;101797.09;5006836;28;20477;-52
2021/11/06 11:06:53;;;;;;;34.70;21.95;;;;;;;9.26;84.18;101798.91;5006057;28;20037;-52
2021/11/06 11:09:26;;;;;;;33.20;21.10;;;;;;;9.32;84.12;101789.97;5006263;28;20083;-54
2021/11/06 11:11:57;;;;;;;28.35;19.42;;;;;;;9.30;84.88;101784.69;4992363;28;20582;-52
2021/11/06 11:14:26;;;;;;;;;;;;;;;9.21;85.27;101781.38;5003725;28;20203;-53
2021/11/06 11:16:55;;;;;;;28.05;18.23;;;;;;;9.14;84.65;101778.84;5013169;28;19925;-53